Americus, GA

12:38 PM EDT on July 10, 2014 (GMT -0400)
Wildwood Circle (KGAAMERI2) Elev 402 ft | 32.06 °N, 84.21 °W | Change Station

Current weather conditions updated 8 minutes ago

Mostly Cloudy
Mostly Cloudy
87.1 °F
Feels Like 93 °F
N
2.1
Wind Variable Wind from SSE
Gusts 6.0 mph

Today is forecast to be Much Cooler than yesterday. A few thunderstorms possible.

Today
High -- | Low -- °F
--% Chance of Precip.
Yesterday
High -- | Low -- °F
Precip. -- in
6:38 AM 8:45 PM
Waxing Gibbous, 95% visible
Pressure 30.12 in
Visibility 10.0 miles
Clouds Scattered Clouds 3300 ft
Scattered Clouds 4600 ft
Mostly Cloudy 6500 ft
Heat Index 93 °F
Dew Point 72 °F
Humidity 60%
Rainfall 0.01 in
Snow Depth Not available.
UV 7 out of 12
Pollen .20 out of 12
Air Quality Not available.
Flu Activity Sporadic
METAR KACJ 101615Z AUTO 00000KT 10SM SCT033 SCT046 BKN065 28/21 A3012 RMK AO2

More Conditions Fewer Conditions

Pressure 30.12 in
Visibility 10.0 miles
Clouds Scattered Clouds 3300 ft
Scattered Clouds 4600 ft
Mostly Cloudy 6500 ft
Heat Index 93 °F
Dew Point 72 °F
Humidity 60%
Rainfall 0.01 in
Snow Depth Not available.
UV 7 out of 12
Pollen .20 out of 12
Air Quality Not available.
Flu Activity Sporadic
METAR KACJ 101615Z AUTO 00000KT 10SM SCT033 SCT046 BKN065 28/21 A3012 RMK AO2

More Conditions Fewer Conditions

10-Day Weather Forecast

Almanac

Astronomy

Jul. 10, 2014 Rise Set
Actual Time 6:38 AM EDT 8:45 PM EDT
Civil Twilight 6:10 AM EDT 9:13 PM EDT
Nautical Twilight 5:36 AM EDT 9:47 PM EDT
Astronomical Twilight 5:00 AM EDT 10:24 PM EDT
Moon 7:01 PM EDT 4:45 AM EDT
Length of Visible Light 15h 03m
Length of Day
14h 07m
Tomorrow will be 0m 49s shorter.
Waxing Gibbous, 95% of the Moon is Illuminated
Today
Waxing Gibbous
Jul 12
Full
Jul 18
Last Quarter
Jul 26
New
Aug 3
First Quarter

Today's Extremes

State Highs State Lows

Community

WunderPhotos

Upload Photos

1,732,184 photos uploaded!

Nearby

Snow Depth

Station Depth Elevation
No new snow has been reported.

Earthquake Activity

City Distance Mag. Time & Date
No recent earthquake activity has been reported nearby.
Minimum magnitude displayed is 2.5.

Coastal Water Temperatures

Place Temperature
No Stations Reporting

Nearby Weather Stations

Station Location Temp. Heat Index Dew Point Humidity Wind Precip. Elev Updated Type
Wildwood Circle, Americus, GA 87.1 °F 93 °F 72 °F 60% SSE  at  2.1 mph 0.00 in / hr 402 ft 12:30 PM EDT Normal
RAWS AMERICUS/PLAINS GA, Americus, GA 86 °F 93 °F 72 °F 64% NNW  at  7 mph 0.00 in / hr 456 ft 12:03 PM EDT MADIS
RAWS BYROMVILLE GA, Byromville, GA 85 °F 91 °F 72 °F 66% NNW  at  5 mph 0.00 in / hr 321 ft 11:05 AM EDT MADIS
Cobb, Cobb, GA 87.7 °F 96 °F 74 °F 64% NNW  at  2.0 mph 0.00 in / hr 285 ft 12:28 PM EDT Normal

Show More Stations Show Fewer Stations